createdAt,value
2022-09-15T00:02:18.282Z,17.82
2022-09-15T00:04:45.027Z,17.84
2022-09-15T00:07:11.497Z,17.77
2022-09-15T00:09:37.970Z,17.84
2022-09-15T00:12:04.888Z,17.80
2022-09-15T00:14:31.294Z,17.84
2022-09-15T00:16:58.079Z,17.84
2022-09-15T00:19:24.823Z,17.87
2022-09-15T00:21:54.364Z,17.88
2022-09-15T00:24:21.071Z,17.88
2022-09-15T00:26:47.576Z,17.87
2022-09-15T00:29:14.232Z,17.87
2022-09-15T00:31:40.688Z,17.88
2022-09-15T00:34:07.843Z,17.79
2022-09-15T00:36:34.250Z,17.76
2022-09-15T00:39:00.888Z,17.74
2022-09-15T00:41:27.850Z,17.74
2022-09-15T00:43:57.722Z,17.73
2022-09-15T00:46:29.268Z,17.65
2022-09-15T00:49:06.030Z,17.70
2022-09-15T00:51:40.086Z,17.76
2022-09-15T00:54:19.216Z,17.69
2022-09-15T00:57:14.790Z,17.69
2022-09-15T01:00:07.278Z,17.72
2022-09-15T01:02:55.085Z,17.68
2022-09-15T01:05:51.495Z,17.71
2022-09-15T01:09:15.172Z,17.74
2022-09-15T01:12:03.363Z,17.75
2022-09-15T01:14:29.811Z,17.74
2022-09-15T01:16:59.916Z,17.76
2022-09-15T01:19:48.364Z,17.80
2022-09-15T01:22:14.955Z,17.78
2022-09-15T01:25:10.188Z,17.85
2022-09-15T01:28:01.383Z,17.83
2022-09-15T01:30:34.916Z,17.82
2022-09-15T01:33:21.493Z,17.85
2022-09-15T01:35:53.383Z,17.86
2022-09-15T01:38:39.671Z,17.85
2022-09-15T01:41:16.146Z,17.80
2022-09-15T01:44:12.116Z,17.84
2022-09-15T01:46:52.608Z,17.85
2022-09-15T01:49:25.078Z,17.83
2022-09-15T01:51:53.550Z,17.86
2022-09-15T01:54:27.995Z,17.81
2022-09-15T01:56:54.890Z,17.89
2022-09-15T01:59:21.432Z,17.81
2022-09-15T02:01:59.325Z,17.83
2022-09-15T02:04:44.649Z,17.83
2022-09-15T02:07:20.516Z,17.79
2022-09-15T02:09:58.396Z,17.83
2022-09-15T02:12:34.805Z,17.83
2022-09-15T02:15:08.350Z,17.80
2022-09-15T02:17:42.735Z,17.83
2022-09-15T02:20:17.667Z,17.74
2022-09-15T02:22:54.082Z,17.74
2022-09-15T02:25:28.972Z,17.76
2022-09-15T02:28:00.216Z,17.78
2022-09-15T02:30:28.332Z,17.72
2022-09-15T02:32:59.906Z,17.70
2022-09-15T02:35:28.623Z,17.73
2022-09-15T02:37:59.727Z,17.73
2022-09-15T02:40:28.963Z,17.68
2022-09-15T02:42:58.750Z,17.66
2022-09-15T02:45:26.743Z,17.71
2022-09-15T02:47:53.814Z,17.65
2022-09-15T02:50:20.466Z,17.69
2022-09-15T02:52:47.141Z,17.65
2022-09-15T02:55:13.654Z,17.59
2022-09-15T02:57:40.307Z,17.60
2022-09-15T03:00:15.915Z,17.62
2022-09-15T03:02:45.433Z,17.54
2022-09-15T03:05:14.515Z,17.53
2022-09-15T03:07:41.859Z,17.53
2022-09-15T03:10:10.186Z,17.55
2022-09-15T03:12:42.012Z,17.54
2022-09-15T03:15:11.022Z,17.61
2022-09-15T03:17:39.292Z,17.54
2022-09-15T03:20:08.055Z,17.50
2022-09-15T03:22:35.989Z,17.53
2022-09-15T03:25:05.410Z,17.52
2022-09-15T03:27:33.000Z,17.43
2022-09-15T03:29:59.777Z,17.47
2022-09-15T03:32:26.427Z,17.43
2022-09-15T03:34:57.704Z,17.46
2022-09-15T03:37:25.055Z,17.49
2022-09-15T03:39:51.715Z,17.45
2022-09-15T03:42:18.924Z,17.51
2022-09-15T03:44:45.290Z,17.46
2022-09-15T03:47:12.192Z,17.49
2022-09-15T03:49:38.847Z,17.56
2022-09-15T03:52:05.615Z,17.52
2022-09-15T03:54:32.133Z,17.55
2022-09-15T03:56:58.981Z,17.50
2022-09-15T03:59:26.046Z,17.53
2022-09-15T04:01:52.514Z,17.57
2022-09-15T04:04:18.962Z,17.54
2022-09-15T04:06:45.569Z,17.46
2022-09-15T04:09:12.312Z,17.54
2022-09-15T04:11:39.499Z,17.46
2022-09-15T04:14:06.321Z,17.40
2022-09-15T04:16:34.004Z,17.34
2022-09-15T04:19:00.794Z,17.31
2022-09-15T04:21:27.209Z,17.23
2022-09-15T04:23:54.426Z,17.30
2022-09-15T04:26:20.776Z,17.32
2022-09-15T04:28:47.794Z,17.23
2022-09-15T04:31:17.167Z,17.25
2022-09-15T04:33:44.908Z,17.27
2022-09-15T04:36:17.652Z,17.31
2022-09-15T04:38:44.834Z,17.22
2022-09-15T04:41:12.610Z,17.21
2022-09-15T04:43:39.132Z,17.25
2022-09-15T04:46:06.132Z,17.25
2022-09-15T04:48:32.589Z,17.25
2022-09-15T04:51:06.615Z,17.25
2022-09-15T04:53:33.925Z,17.12
2022-09-15T04:56:13.086Z,17.16
2022-09-15T04:58:51.315Z,17.08
2022-09-15T05:01:22.558Z,17.13
2022-09-15T05:03:49.570Z,17.17
2022-09-15T05:06:20.146Z,17.05
2022-09-15T05:08:48.345Z,17.03
2022-09-15T05:11:15.560Z,16.91
2022-09-15T05:13:42.401Z,16.95
2022-09-15T05:16:17.633Z,16.86
2022-09-15T05:18:45.967Z,16.84
2022-09-15T05:21:15.331Z,16.76
2022-09-15T05:23:41.864Z,16.92
2022-09-15T05:26:12.547Z,16.88
2022-09-15T05:28:39.742Z,16.86
2022-09-15T05:31:14.959Z,16.78
2022-09-15T05:33:41.699Z,16.70
2022-09-15T05:36:08.413Z,16.66
2022-09-15T05:38:35.699Z,16.65
2022-09-15T05:41:19.133Z,16.50
2022-09-15T05:43:46.931Z,16.51
2022-09-15T05:46:14.556Z,16.61
2022-09-15T05:48:41.515Z,16.43
2022-09-15T05:51:09.748Z,16.38
2022-09-15T05:53:36.955Z,16.44
2022-09-15T05:56:10.847Z,16.45
2022-09-15T05:58:41.768Z,16.40
2022-09-15T06:01:12.638Z,16.28
2022-09-15T06:03:39.399Z,16.33
2022-09-15T06:06:06.425Z,16.38
2022-09-15T06:08:35.260Z,16.30
2022-09-15T06:11:08.698Z,16.31
2022-09-15T06:13:35.343Z,16.19
2022-09-15T06:16:04.599Z,16.15
2022-09-15T06:18:32.677Z,16.13
2022-09-15T06:21:04.067Z,16.19
2022-09-15T06:23:30.479Z,16.08
2022-09-15T06:25:57.424Z,15.96
2022-09-15T06:28:24.806Z,15.99
2022-09-15T06:30:51.865Z,15.99
2022-09-15T06:33:18.757Z,15.95
2022-09-15T06:35:47.173Z,15.96
2022-09-15T06:38:14.070Z,15.99
2022-09-15T06:40:41.891Z,16.03
2022-09-15T06:43:09.039Z,15.82
2022-09-15T06:45:37.205Z,15.73
2022-09-15T06:48:23.522Z,15.73
2022-09-15T06:50:55.489Z,15.70
2022-09-15T06:53:22.495Z,15.75
2022-09-15T06:55:49.341Z,15.66
2022-09-15T06:58:16.324Z,15.53
2022-09-15T07:00:43.024Z,15.53
2022-09-15T07:03:09.511Z,15.54
2022-09-15T07:05:36.018Z,15.53
2022-09-15T07:08:02.815Z,15.59
2022-09-15T07:10:29.195Z,15.71
2022-09-15T07:12:55.688Z,15.57
2022-09-15T07:15:24.767Z,15.56
2022-09-15T07:17:51.132Z,15.48
2022-09-15T07:20:17.561Z,15.51
2022-09-15T07:22:44.167Z,15.62
2022-09-15T07:25:10.713Z,15.68
2022-09-15T07:27:37.219Z,15.77
2022-09-15T07:30:08.935Z,15.70
2022-09-15T07:32:35.448Z,15.89
2022-09-15T07:35:02.417Z,15.92
2022-09-15T07:37:28.967Z,15.98
2022-09-15T07:39:55.747Z,16.09
2022-09-15T07:42:22.171Z,16.01
2022-09-15T07:44:48.763Z,16.01
2022-09-15T07:47:15.384Z,16.11
2022-09-15T07:49:42.102Z,16.24
2022-09-15T07:52:09.572Z,16.24
2022-09-15T07:54:36.267Z,16.22
2022-09-15T07:57:02.931Z,16.13
2022-09-15T07:59:29.444Z,15.93
2022-09-15T08:01:55.929Z,15.91
2022-09-15T08:04:22.564Z,16.17
2022-09-15T08:06:48.947Z,16.27
2022-09-15T08:09:17.589Z,16.20
2022-09-15T08:11:44.444Z,16.27
2022-09-15T08:14:11.184Z,16.36
2022-09-15T08:16:38.288Z,16.41
2022-09-15T08:19:05.554Z,16.50
2022-09-15T08:21:32.018Z,16.70
2022-09-15T08:24:00.738Z,16.69
2022-09-15T08:26:29.047Z,16.56
2022-09-15T08:28:55.822Z,16.69
2022-09-15T08:31:24.093Z,16.78
2022-09-15T08:33:52.355Z,16.71
2022-09-15T08:36:19.426Z,17.01
2022-09-15T08:38:46.641Z,17.04
2022-09-15T08:41:24.485Z,17.12
2022-09-15T08:44:08.275Z,17.22
2022-09-15T08:47:00.814Z,17.25
2022-09-15T08:49:51.684Z,17.27
2022-09-15T08:52:45.721Z,17.58
2022-09-15T08:55:38.899Z,17.64
2022-09-15T08:58:05.999Z,17.24
2022-09-15T09:00:33.349Z,17.24
2022-09-15T09:03:27.205Z,17.35
2022-09-15T09:06:12.501Z,17.46
2022-09-15T09:09:06.117Z,17.43
2022-09-15T09:12:10.713Z,17.67
2022-09-15T09:14:43.110Z,17.40
2022-09-15T09:17:36.628Z,17.55
2022-09-15T09:20:12.157Z,17.67
2022-09-15T09:22:42.583Z,17.76
2022-09-15T09:25:27.164Z,17.88
2022-09-15T09:27:55.005Z,18.06
2022-09-15T09:30:24.695Z,18.10
2022-09-15T09:33:20.788Z,17.97
2022-09-15T09:35:53.969Z,17.87
2022-09-15T09:38:26.292Z,17.83
2022-09-15T09:40:53.381Z,17.64
2022-09-15T09:43:20.330Z,17.88
2022-09-15T09:45:47.070Z,17.87
2022-09-15T09:48:22.755Z,17.93
2022-09-15T09:50:50.730Z,18.01
2022-09-15T09:53:26.130Z,18.03
2022-09-15T09:55:55.373Z,18.10
2022-09-15T09:58:25.122Z,18.28
2022-09-15T10:00:52.898Z,18.34
2022-09-15T10:03:27.090Z,18.37
2022-09-15T10:06:17.249Z,18.28
2022-09-15T10:08:54.883Z,18.44
2022-09-15T10:11:22.550Z,18.23
2022-09-15T10:13:52.785Z,18.32
2022-09-15T10:16:22.744Z,18.22
2022-09-15T10:18:54.250Z,18.05
2022-09-15T10:21:24.752Z,18.09
2022-09-15T10:23:51.599Z,18.25
2022-09-15T10:26:32.055Z,18.08
2022-09-15T10:29:16.558Z,18.14
2022-09-15T10:31:45.094Z,18.28
2022-09-15T10:34:27.594Z,18.34
2022-09-15T10:37:03.716Z,18.27
2022-09-15T10:39:54.823Z,18.33
2022-09-15T10:42:34.000Z,18.20
2022-09-15T10:45:22.507Z,18.10
2022-09-15T10:48:17.332Z,18.22
2022-09-15T10:51:00.710Z,18.30
2022-09-15T10:54:07.129Z,18.01
2022-09-15T10:56:48.181Z,18.46
2022-09-15T10:59:48.894Z,18.33
2022-09-15T11:02:36.922Z,18.26
2022-09-15T11:05:22.869Z,18.36
2022-09-15T11:08:01.785Z,18.42
2022-09-15T11:10:43.506Z,18.34
2022-09-15T11:13:25.974Z,18.53
2022-09-15T11:16:07.982Z,19.09
2022-09-15T11:19:02.499Z,19.62
2022-09-15T11:21:43.969Z,19.60
2022-09-15T11:24:41.320Z,19.96
2022-09-15T11:27:26.653Z,20.55
2022-09-15T11:30:04.252Z,21.16
2022-09-15T11:32:58.199Z,20.60
2022-09-15T11:35:59.371Z,20.67
2022-09-15T11:39:02.075Z,20.76
2022-09-15T11:41:36.104Z,20.78
2022-09-15T11:44:33.768Z,21.95
2022-09-15T11:47:15.481Z,22.32
2022-09-15T11:49:53.773Z,22.05
2022-09-15T11:52:42.261Z,21.87
2022-09-15T11:55:15.754Z,21.80
2022-09-15T11:58:21.623Z,22.27
2022-09-15T12:01:11.816Z,22.24
2022-09-15T12:03:53.858Z,22.92
2022-09-15T12:06:28.164Z,22.60
2022-09-15T12:09:06.441Z,21.88
2022-09-15T12:11:36.862Z,21.72
2022-09-15T12:14:04.821Z,21.72
2022-09-15T12:16:33.614Z,22.27
2022-09-15T12:19:17.124Z,22.79
2022-09-15T12:21:57.925Z,22.61
2022-09-15T12:24:45.803Z,21.90
2022-09-15T12:27:20.058Z,22.46
2022-09-15T12:29:52.227Z,23.32
2022-09-15T12:32:23.178Z,22.64
2022-09-15T12:35:19.403Z,21.42
2022-09-15T12:38:13.432Z,21.71
2022-09-15T12:40:40.751Z,21.20
2022-09-15T12:43:16.377Z,21.38
2022-09-15T12:46:00.793Z,21.18
2022-09-15T12:48:33.743Z,21.04
2022-09-15T12:51:07.015Z,21.05
2022-09-15T12:53:37.330Z,20.57
2022-09-15T12:56:11.531Z,20.41
2022-09-15T12:58:42.120Z,20.57
2022-09-15T13:01:27.102Z,20.83
2022-09-15T13:04:00.685Z,20.98
2022-09-15T13:06:38.334Z,20.96
2022-09-15T13:09:05.762Z,20.97
2022-09-15T13:11:38.244Z,21.02
2022-09-15T13:14:08.320Z,21.01
2022-09-15T13:16:48.542Z,21.11
2022-09-15T13:19:33.491Z,21.66
2022-09-15T13:21:59.948Z,21.39
2022-09-15T13:24:37.492Z,21.70
2022-09-15T13:27:06.172Z,22.95
2022-09-15T13:29:38.712Z,23.56
2022-09-15T13:32:39.680Z,22.88
2022-09-15T13:35:38.700Z,23.56
2022-09-15T13:38:37.030Z,23.32
2022-09-15T13:41:23.290Z,23.21
2022-09-15T13:44:18.074Z,23.22
2022-09-15T13:47:28.744Z,23.43
2022-09-15T13:50:01.366Z,22.64
2022-09-15T13:53:03.452Z,22.60
2022-09-15T13:55:39.262Z,22.43
2022-09-15T14:01:03.000Z,22.93
2022-09-15T14:03:38.780Z,23.11
2022-09-15T14:06:17.869Z,24.07
2022-09-15T14:08:47.895Z,23.63
2022-09-15T14:11:17.195Z,23.24
2022-09-15T14:13:47.606Z,22.62
2022-09-15T14:16:35.202Z,22.54
2022-09-15T14:19:21.887Z,22.57
2022-09-15T14:21:48.996Z,22.39
2022-09-15T14:24:22.630Z,23.34
2022-09-15T14:26:49.503Z,22.62
2022-09-15T14:29:20.401Z,22.29
2022-09-15T14:31:49.006Z,22.13
2022-09-15T14:34:26.260Z,22.48
2022-09-15T14:37:07.748Z,22.30
2022-09-15T14:39:37.496Z,22.94
2022-09-15T14:42:22.983Z,22.97
2022-09-15T14:47:39.928Z,22.79
2022-09-15T14:50:18.518Z,22.68
2022-09-15T14:52:49.778Z,22.34
2022-09-15T14:55:28.135Z,22.22
2022-09-15T14:58:03.674Z,22.01
2022-09-15T15:00:37.398Z,21.73
2022-09-15T15:03:29.791Z,21.67
2022-09-15T15:06:12.772Z,21.94
2022-09-15T15:09:03.316Z,22.12
2022-09-15T15:11:32.778Z,21.93
2022-09-15T15:13:59.653Z,21.97
2022-09-15T15:16:29.081Z,21.89
2022-09-15T15:18:57.044Z,21.59
2022-09-15T15:21:43.298Z,21.48
2022-09-15T15:24:12.753Z,21.39
2022-09-15T15:26:42.393Z,21.38
2022-09-15T15:29:45.276Z,21.28
2022-09-15T15:32:14.852Z,21.35
2022-09-15T15:34:49.365Z,21.39
2022-09-15T15:37:33.799Z,21.30
2022-09-15T15:40:04.344Z,21.22
2022-09-15T15:42:30.989Z,21.04
2022-09-15T15:45:04.069Z,21.15
2022-09-15T15:47:34.919Z,21.13
2022-09-15T15:50:13.602Z,21.04
2022-09-15T15:52:41.508Z,20.97
2022-09-15T15:55:09.793Z,21.05
2022-09-15T15:57:39.630Z,20.90
2022-09-15T16:00:35.898Z,20.80
2022-09-15T16:03:02.469Z,20.82
2022-09-15T16:05:29.799Z,20.84
2022-09-15T16:08:01.447Z,20.85
2022-09-15T16:10:30.606Z,20.80
2022-09-15T16:12:57.072Z,20.88
2022-09-15T16:15:23.588Z,20.83
2022-09-15T16:17:50.830Z,20.85
2022-09-15T16:20:44.854Z,20.80
2022-09-15T16:23:14.849Z,20.76
2022-09-15T16:25:49.637Z,20.59
2022-09-15T16:28:17.322Z,20.63
2022-09-15T16:30:44.275Z,20.67
2022-09-15T16:33:18.290Z,20.57
2022-09-15T16:35:58.660Z,20.67
2022-09-15T16:38:25.848Z,20.65
2022-09-15T16:40:52.617Z,20.66
2022-09-15T16:43:21.459Z,20.66
2022-09-15T16:45:49.212Z,20.62
2022-09-15T16:48:15.990Z,20.47
2022-09-15T16:53:34.746Z,20.45
2022-09-15T16:56:01.588Z,20.43
2022-09-15T16:58:28.391Z,20.46
2022-09-15T17:00:55.864Z,20.33
2022-09-15T17:03:24.684Z,20.30
2022-09-15T17:05:53.590Z,20.25
2022-09-15T17:08:22.819Z,20.17
2022-09-15T17:10:50.641Z,20.09
2022-09-15T17:13:20.062Z,20.04
2022-09-15T17:15:46.926Z,19.91
2022-09-15T17:18:15.332Z,19.94
2022-09-15T17:20:44.128Z,19.85
2022-09-15T17:23:19.412Z,19.76
2022-09-15T17:25:52.600Z,19.80
2022-09-15T17:28:26.973Z,19.70
2022-09-15T17:30:58.174Z,19.74
2022-09-15T17:33:25.902Z,19.56
2022-09-15T17:35:53.220Z,19.51
2022-09-15T17:38:21.627Z,19.58
2022-09-15T17:40:49.770Z,19.47
2022-09-15T17:43:18.490Z,19.34
2022-09-15T17:45:46.255Z,19.26
2022-09-15T17:48:13.026Z,19.19
2022-09-15T17:50:41.712Z,19.16
2022-09-15T17:53:17.382Z,19.08
2022-09-15T17:55:44.984Z,18.98
2022-09-15T17:58:11.678Z,19.04
2022-09-15T18:00:41.042Z,18.87
2022-09-15T18:03:29.844Z,18.80
2022-09-15T18:05:58.594Z,18.77
2022-09-15T18:08:26.184Z,18.68
2022-09-15T18:10:53.057Z,18.61
2022-09-15T18:13:23.341Z,18.50
2022-09-15T18:15:50.670Z,18.47
2022-09-15T18:18:27.392Z,18.37
2022-09-15T18:20:56.612Z,18.24
2022-09-15T18:23:25.729Z,18.23
2022-09-15T18:25:52.567Z,18.10
2022-09-15T18:28:19.821Z,18.06
2022-09-15T18:30:48.773Z,18.09
2022-09-15T18:33:25.892Z,18.04
2022-09-15T18:35:54.724Z,17.95
2022-09-15T18:38:22.307Z,17.95
2022-09-15T18:40:53.111Z,17.72
2022-09-15T18:43:21.162Z,17.79
2022-09-15T18:45:48.175Z,17.80
2022-09-15T18:48:14.991Z,17.76
2022-09-15T18:50:43.460Z,17.76
2022-09-15T18:53:10.214Z,17.81
2022-09-15T18:55:36.864Z,17.73
2022-09-15T18:58:03.583Z,17.72
2022-09-15T19:00:31.410Z,17.37
2022-09-15T19:03:01.012Z,17.53
2022-09-15T19:05:29.687Z,17.50
2022-09-15T19:07:56.767Z,17.58
2022-09-15T19:10:25.052Z,17.39
2022-09-15T19:12:51.850Z,17.33
2022-09-15T19:15:18.429Z,17.37
2022-09-15T19:17:46.499Z,17.35
2022-09-15T19:20:15.207Z,17.44
2022-09-15T19:22:42.263Z,17.35
2022-09-15T19:25:10.989Z,17.38
2022-09-15T19:27:38.787Z,17.34
2022-09-15T19:30:07.311Z,17.36
2022-09-15T19:32:33.869Z,17.40
2022-09-15T19:35:00.496Z,17.33
2022-09-15T19:37:27.265Z,17.39
2022-09-15T19:39:54.590Z,17.34
2022-09-15T19:42:21.145Z,17.30
2022-09-15T19:44:49.243Z,17.31
2022-09-15T19:47:15.813Z,17.33
2022-09-15T19:49:42.241Z,17.32
2022-09-15T19:52:08.881Z,17.31
2022-09-15T19:54:35.512Z,17.29
2022-09-15T19:57:02.508Z,17.28
2022-09-15T19:59:31.657Z,17.31
2022-09-15T20:01:59.393Z,17.23
2022-09-15T20:04:26.726Z,17.22
2022-09-15T20:06:53.342Z,17.14
2022-09-15T20:09:19.816Z,17.19
2022-09-15T20:11:46.486Z,17.04
2022-09-15T20:14:13.475Z,17.06
2022-09-15T20:16:40.879Z,17.09
2022-09-15T20:19:07.614Z,17.23
2022-09-15T20:21:52.008Z,17.19
2022-09-15T20:24:20.281Z,17.26
2022-09-15T20:26:47.505Z,17.14
2022-09-15T20:29:14.252Z,17.04
2022-09-15T20:31:41.551Z,17.10
2022-09-15T20:34:08.005Z,17.03
2022-09-15T20:36:36.529Z,16.97
2022-09-15T20:39:06.287Z,17.04
2022-09-15T20:41:33.285Z,16.85
2022-09-15T20:44:00.293Z,16.99
2022-09-15T20:46:29.453Z,17.03
2022-09-15T20:48:56.192Z,17.02
2022-09-15T20:51:29.610Z,16.95
2022-09-15T20:53:57.840Z,16.98
2022-09-15T20:56:27.417Z,16.92
2022-09-15T20:58:56.696Z,16.93
2022-09-15T21:01:27.823Z,16.95
2022-09-15T21:03:57.283Z,16.97
2022-09-15T21:06:25.947Z,16.87
2022-09-15T21:08:53.562Z,16.91
2022-09-15T21:11:21.287Z,16.91
2022-09-15T21:13:48.487Z,17.01
2022-09-15T21:16:18.255Z,16.92
2022-09-15T21:18:45.281Z,16.81
2022-09-15T21:21:15.223Z,16.75
2022-09-15T21:23:44.373Z,16.86
2022-09-15T21:26:16.624Z,16.78
2022-09-15T21:28:44.009Z,16.88
2022-09-15T21:31:12.384Z,16.90
2022-09-15T21:33:39.540Z,16.88
2022-09-15T21:36:06.525Z,16.87
2022-09-15T21:38:34.872Z,16.88
2022-09-15T21:41:01.704Z,16.75
2022-09-15T21:43:36.028Z,16.81
2022-09-15T21:46:04.982Z,16.77
2022-09-15T21:48:33.391Z,16.78
2022-09-15T21:51:00.317Z,16.55
2022-09-15T21:53:26.992Z,16.59
2022-09-15T21:55:53.770Z,16.66
2022-09-15T21:58:22.555Z,16.65
2022-09-15T22:00:49.989Z,16.61
2022-09-15T22:03:18.223Z,16.65
2022-09-15T22:05:47.322Z,16.54
2022-09-15T22:08:16.365Z,16.51
2022-09-15T22:10:43.669Z,16.44
2022-09-15T22:13:12.269Z,16.44
2022-09-15T22:15:38.758Z,16.43
2022-09-15T22:18:06.617Z,16.42
2022-09-15T22:20:33.073Z,16.38
2022-09-15T22:23:02.656Z,16.35
2022-09-15T22:25:29.361Z,16.35
2022-09-15T22:27:55.775Z,16.28
2022-09-15T22:30:22.627Z,16.24
2022-09-15T22:32:49.271Z,16.26
2022-09-15T22:35:17.306Z,16.30
2022-09-15T22:37:44.492Z,16.22
2022-09-15T22:40:11.500Z,16.24
2022-09-15T22:42:38.618Z,16.21
2022-09-15T22:45:05.868Z,16.21
2022-09-15T22:47:33.156Z,16.16
2022-09-15T22:49:59.683Z,16.15
2022-09-15T22:52:26.384Z,16.22
2022-09-15T22:54:53.010Z,16.14
2022-09-15T22:57:19.489Z,16.07
2022-09-15T22:59:46.344Z,16.06
2022-09-15T23:02:12.904Z,16.04
2022-09-15T23:04:39.615Z,15.86
2022-09-15T23:07:06.308Z,15.93
2022-09-15T23:09:33.142Z,15.94
2022-09-15T23:11:59.616Z,15.94
2022-09-15T23:14:26.588Z,15.92
2022-09-15T23:16:53.535Z,15.87
2022-09-15T23:19:19.959Z,15.88
2022-09-15T23:21:46.412Z,15.86
2022-09-15T23:24:13.939Z,15.80
2022-09-15T23:26:40.637Z,15.73
2022-09-15T23:29:10.102Z,15.80
2022-09-15T23:31:37.310Z,15.74
2022-09-15T23:34:03.893Z,15.76
2022-09-15T23:36:30.512Z,15.76
2022-09-15T23:38:56.939Z,15.75
2022-09-15T23:41:24.529Z,15.74
2022-09-15T23:43:51.484Z,15.64
2022-09-15T23:46:18.012Z,15.61
2022-09-15T23:48:44.721Z,15.65
2022-09-15T23:51:11.253Z,15.65
2022-09-15T23:53:37.694Z,15.62
2022-09-15T23:56:04.880Z,15.62
2022-09-15T23:58:31.397Z,15.62
